KMWH/MWH METAR and TAF weather

Enter ICAO airport designator
Station Type Date Time Source
KMWH METAR 2020/07/13 14:52 UTC NOAA

KMWH 131452Z 34008KT 10SM CLR 18/03 A3009 RMK AO2 SLP184 T01780033 51007


Station Type Date Time Source
KMWH Decoded METAR 2020/07/13 14:52 UTC NOAA

GRANT COUNTY AIRPORT, WA, United States (KMWH) 47-12N 119-19W 362M
Jul 13, 2020 - 10:52 AM EDT / 2020.07.13 1452 UTC
Wind: from the NNW (340 degrees) at 9 MPH (8 KT):0
Visibility: 10 mile(s):0
Sky conditions: clear
Temperature: 64.0 F (17.8 C)
Dew Point: 37.9 F (3.3 C)
Relative Humidity: 37%
Pressure (altimeter): 30.09 in. Hg (1018 hPa)
Pressure tendency: 0.02 inches (0.7 hPa) higher than three hours ago
ob: KMWH 131452Z 34008KT 10SM CLR 18/03 A3009 RMK AO2 SLP184 T01780033 51007
cycle: 15

Station Type Date Time Source
KMWH TAF 2020/07/13 12:22 UTC NOAA

TAF KMWH 131120Z 1312/1412 35004KT P6SM SKC
FM131800 23005KT P6SM FEW250
FM140600 33005KT P6SM SKC

Example: see airport list